sensor_id;sensor_type;location;lat;lon;timestamp;temperature;humidity
7958;DHT22;4024;52.172;5.378;2024-03-23T00:54:20;10.80;99.90
7958;DHT22;4024;52.172;5.378;2024-03-23T00:56:46;10.80;99.90
7958;DHT22;4024;52.172;5.378;2024-03-23T00:59:11;10.70;99.90
7958;DHT22;4024;52.172;5.378;2024-03-23T01:01:37;10.70;99.90
7958;DHT22;4024;52.172;5.378;2024-03-23T01:04:03;10.70;99.90
7958;DHT22;4024;52.172;5.378;2024-03-23T01:06:28;10.70;99.90
7958;DHT22;4024;52.172;5.378;2024-03-23T01:08:54;10.70;99.90
7958;DHT22;4024;52.172;5.378;2024-03-23T01:11:19;10.70;99.90
7958;DHT22;4024;52.172;5.378;2024-03-23T01:13:45;10.60;99.90
7958;DHT22;4024;52.172;5.378;2024-03-23T01:16:10;10.60;99.90
7958;DHT22;4024;52.172;5.378;2024-03-23T01:18:36;10.60;99.90
7958;DHT22;4024;52.172;5.378;2024-03-23T01:21:02;10.50;99.90
7958;DHT22;4024;52.172;5.378;2024-03-23T01:23:27;10.60;99.90
7958;DHT22;4024;52.172;5.378;2024-03-23T01:25:53;10.50;99.90
7958;DHT22;4024;52.172;5.378;2024-03-23T01:28:20;10.50;99.90
7958;DHT22;4024;52.172;5.378;2024-03-23T01:30:46;10.50;99.90
7958;DHT22;4024;52.172;5.378;2024-03-23T01:33:12;10.50;99.90
7958;DHT22;4024;52.172;5.378;2024-03-23T01:35:37;10.50;99.90
7958;DHT22;4024;52.172;5.378;2024-03-23T01:38:03;10.50;99.90
7958;DHT22;4024;52.172;5.378;2024-03-23T01:40:29;10.50;99.90
7958;DHT22;4024;52.172;5.378;2024-03-23T01:42:58;10.50;99.90
7958;DHT22;4024;52.172;5.378;2024-03-23T01:45:24;10.50;99.90
7958;DHT22;4024;52.172;5.378;2024-03-23T01:47:51;10.40;99.90
7958;DHT22;4024;52.172;5.378;2024-03-23T01:50:17;10.50;99.90
7958;DHT22;4024;52.172;5.378;2024-03-23T01:52:43;10.40;99.90
7958;DHT22;4024;52.172;5.378;2024-03-23T01:55:09;10.40;99.90
7958;DHT22;4024;52.172;5.378;2024-03-23T01:57:35;10.40;99.90
7958;DHT22;4024;52.172;5.378;2024-03-23T02:00:00;10.30;99.90
7958;DHT22;4024;52.172;5.378;2024-03-23T02:02:26;10.20;99.90
7958;DHT22;4024;52.172;5.378;2024-03-23T02:04:51;10.20;99.90
7958;DHT22;4024;52.172;5.378;2024-03-23T02:07:17;10.20;99.90
7958;DHT22;4024;52.172;5.378;2024-03-23T02:09:43;10.10;99.90
7958;DHT22;4024;52.172;5.378;2024-03-23T02:12:09;10.10;99.90
7958;DHT22;4024;52.172;5.378;2024-03-23T02:14:35;10.00;99.90
7958;DHT22;4024;52.172;5.378;2024-03-23T02:17:00;10.00;99.90
7958;DHT22;4024;52.172;5.378;2024-03-23T02:19:26;9.90;99.90
7958;DHT22;4024;52.172;5.378;2024-03-23T02:21:51;9.90;99.90
7958;DHT22;4024;52.172;5.378;2024-03-23T02:24:17;9.90;99.90
7958;DHT22;4024;52.172;5.378;2024-03-23T02:26:42;9.80;99.90
7958;DHT22;4024;52.172;5.378;2024-03-23T02:29:08;9.80;99.90
7958;DHT22;4024;52.172;5.378;2024-03-23T02:31:35;9.70;99.90
7958;DHT22;4024;52.172;5.378;2024-03-23T02:34:01;9.70;99.90
7958;DHT22;4024;52.172;5.378;2024-03-23T02:36:26;9.70;99.90
7958;DHT22;4024;52.172;5.378;2024-03-23T02:38:52;9.60;99.90
7958;DHT22;4024;52.172;5.378;2024-03-23T02:41:17;9.60;99.90
7958;DHT22;4024;52.172;5.378;2024-03-23T02:43:52;9.60;99.90
7958;DHT22;4024;52.172;5.378;2024-03-23T02:46:17;9.60;99.90
7958;DHT22;4024;52.172;5.378;2024-03-23T02:48:43;9.50;99.90
7958;DHT22;4024;52.172;5.378;2024-03-23T02:51:09;9.50;99.90
7958;DHT22;4024;52.172;5.378;2024-03-23T02:53:34;9.50;99.90
7958;DHT22;4024;52.172;5.378;2024-03-23T02:56:00;9.50;99.90
7958;DHT22;4024;52.172;5.378;2024-03-23T02:58:26;9.50;99.90
7958;DHT22;4024;52.172;5.378;2024-03-23T03:00:51;9.40;99.90
7958;DHT22;4024;52.172;5.378;2024-03-23T03:03:17;9.40;99.90
7958;DHT22;4024;52.172;5.378;2024-03-23T03:05:42;9.40;99.90
7958;DHT22;4024;52.172;5.378;2024-03-23T03:08:08;9.40;99.90
7958;DHT22;4024;52.172;5.378;2024-03-23T03:10:34;9.30;99.90
7958;DHT22;4024;52.172;5.378;2024-03-23T03:13:01;9.30;99.90
7958;DHT22;4024;52.172;5.378;2024-03-23T03:15:27;9.30;99.90
7958;DHT22;4024;52.172;5.378;2024-03-23T03:17:53;9.30;99.90
7958;DHT22;4024;52.172;5.378;2024-03-23T03:20:19;9.30;99.90
7958;DHT22;4024;52.172;5.378;2024-03-23T03:22:44;9.20;99.90
7958;DHT22;4024;52.172;5.378;2024-03-23T03:25:10;9.20;99.90
7958;DHT22;4024;52.172;5.378;2024-03-23T03:27:35;9.20;99.90
7958;DHT22;4024;52.172;5.378;2024-03-23T03:30:01;9.20;99.90
7958;DHT22;4024;52.172;5.378;2024-03-23T03:32:32;9.20;99.90
7958;DHT22;4024;52.172;5.378;2024-03-23T03:34:57;9.20;99.90
7958;DHT22;4024;52.172;5.378;2024-03-23T03:37:23;9.10;99.90
7958;DHT22;4024;52.172;5.378;2024-03-23T03:39:49;9.10;99.90
7958;DHT22;4024;52.172;5.378;2024-03-23T03:42:14;9.10;99.90
7958;DHT22;4024;52.172;5.378;2024-03-23T03:44:40;9.00;99.90
7958;DHT22;4024;52.172;5.378;2024-03-23T03:47:06;9.00;99.90
7958;DHT22;4024;52.172;5.378;2024-03-23T03:49:32;9.00;99.90
7958;DHT22;4024;52.172;5.378;2024-03-23T03:51:57;9.00;99.90
7958;DHT22;4024;52.172;5.378;2024-03-23T03:54:23;9.00;99.90
7958;DHT22;4024;52.172;5.378;2024-03-23T03:56:48;8.90;99.90
7958;DHT22;4024;52.172;5.378;2024-03-23T03:59:14;8.90;99.90
7958;DHT22;4024;52.172;5.378;2024-03-23T04:01:40;8.90;99.90
7958;DHT22;4024;52.172;5.378;2024-03-23T04:04:06;8.90;99.90
7958;DHT22;4024;52.172;5.378;2024-03-23T04:06:32;8.80;99.90
7958;DHT22;4024;52.172;5.378;2024-03-23T04:08:58;8.80;99.90
7958;DHT22;4024;52.172;5.378;2024-03-23T04:11:24;8.80;99.90
7958;DHT22;4024;52.172;5.378;2024-03-23T04:13:49;8.80;99.90
7958;DHT22;4024;52.172;5.378;2024-03-23T04:16:28;8.70;99.90
7958;DHT22;4024;52.172;5.378;2024-03-23T04:18:54;8.80;99.90
7958;DHT22;4024;52.172;5.378;2024-03-23T04:21:20;8.70;99.90
7958;DHT22;4024;52.172;5.378;2024-03-23T04:23:46;8.60;99.90
7958;DHT22;4024;52.172;5.378;2024-03-23T04:26:11;8.60;99.90
7958;DHT22;4024;52.172;5.378;2024-03-23T04:28:37;8.60;99.90
7958;DHT22;4024;52.172;5.378;2024-03-23T04:31:05;8.60;99.90
7958;DHT22;4024;52.172;5.378;2024-03-23T04:33:31;8.60;99.90
7958;DHT22;4024;52.172;5.378;2024-03-23T04:35:57;8.70;99.90
7958;DHT22;4024;52.172;5.378;2024-03-23T04:38:22;8.70;99.90
7958;DHT22;4024;52.172;5.378;2024-03-23T04:40:55;8.60;99.90
7958;DHT22;4024;52.172;5.378;2024-03-23T04:43:21;8.60;99.90
7958;DHT22;4024;52.172;5.378;2024-03-23T04:45:46;8.70;99.90
7958;DHT22;4024;52.172;5.378;2024-03-23T04:48:12;8.60;99.90
7958;DHT22;4024;52.172;5.378;2024-03-23T04:50:38;8.70;99.90
7958;DHT22;4024;52.172;5.378;2024-03-23T04:53:04;8.60;99.90
7958;DHT22;4024;52.172;5.378;2024-03-23T04:55:29;8.70;99.90
7958;DHT22;4024;52.172;5.378;2024-03-23T04:57:56;8.70;99.90
7958;DHT22;4024;52.172;5.378;2024-03-23T05:00:21;8.60;99.90
7958;DHT22;4024;52.172;5.378;2024-03-23T05:02:48;8.60;99.90
7958;DHT22;4024;52.172;5.378;2024-03-23T05:05:14;8.60;99.90
7958;DHT22;4024;52.172;5.378;2024-03-23T05:07:40;8.60;99.90
7958;DHT22;4024;52.172;5.378;2024-03-23T05:10:09;8.60;99.90
7958;DHT22;4024;52.172;5.378;2024-03-23T05:12:37;8.60;99.90
7958;DHT22;4024;52.172;5.378;2024-03-23T05:15:04;8.50;99.90
7958;DHT22;4024;52.172;5.378;2024-03-23T05:17:30;8.40;99.90
7958;DHT22;4024;52.172;5.378;2024-03-23T05:19:56;8.40;99.90
7958;DHT22;4024;52.172;5.378;2024-03-23T05:22:23;8.40;99.90
7958;DHT22;4024;52.172;5.378;2024-03-23T05:24:49;8.30;99.90
7958;DHT22;4024;52.172;5.378;2024-03-23T05:27:15;8.30;99.90
7958;DHT22;4024;52.172;5.378;2024-03-23T05:29:40;8.30;99.90
7958;DHT22;4024;52.172;5.378;2024-03-23T05:32:06;8.30;99.90
7958;DHT22;4024;52.172;5.378;2024-03-23T05:34:32;8.20;99.90
7958;DHT22;4024;52.172;5.378;2024-03-23T05:36:57;8.20;99.90
7958;DHT22;4024;52.172;5.378;2024-03-23T05:39:23;8.20;99.90
7958;DHT22;4024;52.172;5.378;2024-03-23T05:41:49;8.20;99.90
7958;DHT22;4024;52.172;5.378;2024-03-23T05:44:15;8.20;99.90
7958;DHT22;4024;52.172;5.378;2024-03-23T05:46:41;8.20;99.90
7958;DHT22;4024;52.172;5.378;2024-03-23T05:49:07;8.20;99.90
7958;DHT22;4024;52.172;5.378;2024-03-23T05:51:32;8.20;99.90
7958;DHT22;4024;52.172;5.378;2024-03-23T05:53:58;8.20;99.90
7958;DHT22;4024;52.172;5.378;2024-03-23T05:56:24;8.20;99.90
7958;DHT22;4024;52.172;5.378;2024-03-23T05:58:51;8.30;99.90
7958;DHT22;4024;52.172;5.378;2024-03-23T06:01:17;8.30;99.90
7958;DHT22;4024;52.172;5.378;2024-03-23T06:03:43;8.30;99.90
7958;DHT22;4024;52.172;5.378;2024-03-23T06:06:09;8.30;99.90
7958;DHT22;4024;52.172;5.378;2024-03-23T06:08:37;8.40;99.90
7958;DHT22;4024;52.172;5.378;2024-03-23T06:11:03;8.30;99.90
7958;DHT22;4024;52.172;5.378;2024-03-23T06:13:29;8.40;99.90
7958;DHT22;4024;52.172;5.378;2024-03-23T06:15:56;8.40;99.90
7958;DHT22;4024;52.172;5.378;2024-03-23T06:18:21;8.40;99.90
7958;DHT22;4024;52.172;5.378;2024-03-23T06:20:47;8.40;99.90
7958;DHT22;4024;52.172;5.378;2024-03-23T06:23:12;8.30;99.90
7958;DHT22;4024;52.172;5.378;2024-03-23T06:25:38;8.30;99.90
7958;DHT22;4024;52.172;5.378;2024-03-23T06:28:04;8.40;99.90
7958;DHT22;4024;52.172;5.378;2024-03-23T06:30:30;8.30;99.90
7958;DHT22;4024;52.172;5.378;2024-03-23T06:32:57;8.30;99.90
7958;DHT22;4024;52.172;5.378;2024-03-23T06:35:23;8.30;99.90
7958;DHT22;4024;52.172;5.378;2024-03-23T06:37:49;8.30;99.90
7958;DHT22;4024;52.172;5.378;2024-03-23T06:40:14;8.30;99.90
7958;DHT22;4024;52.172;5.378;2024-03-23T06:42:40;8.30;99.90
7958;DHT22;4024;52.172;5.378;2024-03-23T06:45:06;8.30;99.90
7958;DHT22;4024;52.172;5.378;2024-03-23T06:47:32;8.30;99.90
7958;DHT22;4024;52.172;5.378;2024-03-23T06:49:59;8.40;99.90
7958;DHT22;4024;52.172;5.378;2024-03-23T06:52:27;8.40;99.90
7958;DHT22;4024;52.172;5.378;2024-03-23T06:54:53;8.40;99.90
7958;DHT22;4024;52.172;5.378;2024-03-23T06:57:18;8.40;99.90
7958;DHT22;4024;52.172;5.378;2024-03-23T06:59:44;8.40;99.90
7958;DHT22;4024;52.172;5.378;2024-03-23T07:02:10;8.40;99.90
7958;DHT22;4024;52.172;5.378;2024-03-23T07:04:36;8.50;99.90
7958;DHT22;4024;52.172;5.378;2024-03-23T07:07:02;8.70;99.90
7958;DHT22;4024;52.172;5.378;2024-03-23T07:09:28;8.50;99.90
7958;DHT22;4024;52.172;5.378;2024-03-23T07:11:55;8.60;99.90
7958;DHT22;4024;52.172;5.378;2024-03-23T07:14:22;8.50;99.90
7958;DHT22;4024;52.172;5.378;2024-03-23T07:16:48;8.60;99.90
7958;DHT22;4024;52.172;5.378;2024-03-23T07:19:15;8.70;99.90
7958;DHT22;4024;52.172;5.378;2024-03-23T07:21:46;8.60;99.90
7958;DHT22;4024;52.172;5.378;2024-03-23T07:24:13;8.70;99.90
7958;DHT22;4024;52.172;5.378;2024-03-23T07:26:39;8.80;99.90
7958;DHT22;4024;52.172;5.378;2024-03-23T07:29:05;8.80;99.90
7958;DHT22;4024;52.172;5.378;2024-03-23T07:31:30;8.80;99.90
7958;DHT22;4024;52.172;5.378;2024-03-23T07:33:56;8.80;99.90
7958;DHT22;4024;52.172;5.378;2024-03-23T07:36:22;8.80;99.90
7958;DHT22;4024;52.172;5.378;2024-03-23T07:38:47;8.90;99.90
7958;DHT22;4024;52.172;5.378;2024-03-23T07:41:18;8.90;99.90
7958;DHT22;4024;52.172;5.378;2024-03-23T07:43:44;9.00;99.90
7958;DHT22;4024;52.172;5.378;2024-03-23T07:46:10;9.00;99.90
7958;DHT22;4024;52.172;5.378;2024-03-23T07:48:35;9.10;99.90
7958;DHT22;4024;52.172;5.378;2024-03-23T07:51:21;9.10;99.90
7958;DHT22;4024;52.172;5.378;2024-03-23T07:53:47;9.20;99.90
7958;DHT22;4024;52.172;5.378;2024-03-23T07:56:17;9.30;99.90
7958;DHT22;4024;52.172;5.378;2024-03-23T07:58:44;9.40;99.90
7958;DHT22;4024;52.172;5.378;2024-03-23T08:01:15;9.40;99.90
7958;DHT22;4024;52.172;5.378;2024-03-23T08:03:43;9.50;99.90
7958;DHT22;4024;52.172;5.378;2024-03-23T08:06:13;9.50;99.90
7958;DHT22;4024;52.172;5.378;2024-03-23T08:08:40;9.60;99.90
7958;DHT22;4024;52.172;5.378;2024-03-23T08:11:06;9.50;99.90
7958;DHT22;4024;52.172;5.378;2024-03-23T08:13:33;9.60;99.90
7958;DHT22;4024;52.172;5.378;2024-03-23T08:16:00;9.70;99.90
7958;DHT22;4024;52.172;5.378;2024-03-23T08:18:26;9.70;99.90
7958;DHT22;4024;52.172;5.378;2024-03-23T08:21:01;9.80;99.90
7958;DHT22;4024;52.172;5.378;2024-03-23T08:23:36;9.80;99.90
7958;DHT22;4024;52.172;5.378;2024-03-23T08:26:14;9.90;99.90
7958;DHT22;4024;52.172;5.378;2024-03-23T08:28:40;10.00;99.90
7958;DHT22;4024;52.172;5.378;2024-03-23T08:31:08;10.00;99.90
7958;DHT22;4024;52.172;5.378;2024-03-23T08:33:34;10.10;99.90
7958;DHT22;4024;52.172;5.378;2024-03-23T08:36:07;10.10;99.90
7958;DHT22;4024;52.172;5.378;2024-03-23T08:38:33;10.10;99.90
7958;DHT22;4024;52.172;5.378;2024-03-23T08:41:10;10.10;99.90
7958;DHT22;4024;52.172;5.378;2024-03-23T08:43:36;10.10;99.90
7958;DHT22;4024;52.172;5.378;2024-03-23T08:46:15;10.20;99.90
7958;DHT22;4024;52.172;5.378;2024-03-23T08:48:43;10.20;99.90
7958;DHT22;4024;52.172;5.378;2024-03-23T08:51:10;10.20;99.90
7958;DHT22;4024;52.172;5.378;2024-03-23T08:53:36;10.20;99.90
7958;DHT22;4024;52.172;5.378;2024-03-23T08:56:03;10.20;99.90
7958;DHT22;4024;52.172;5.378;2024-03-23T08:58:31;10.20;99.90
7958;DHT22;4024;52.172;5.378;2024-03-23T09:01:02;10.20;99.90
7958;DHT22;4024;52.172;5.378;2024-03-23T09:03:28;10.20;99.90
7958;DHT22;4024;52.172;5.378;2024-03-23T09:05:54;10.10;99.90
7958;DHT22;4024;52.172;5.378;2024-03-23T09:08:22;10.10;99.90
7958;DHT22;4024;52.172;5.378;2024-03-23T09:10:47;10.10;99.90
7958;DHT22;4024;52.172;5.378;2024-03-23T09:13:13;10.10;99.90
7958;DHT22;4024;52.172;5.378;2024-03-23T09:15:50;10.10;99.90
7958;DHT22;4024;52.172;5.378;2024-03-23T09:18:15;10.20;99.90
7958;DHT22;4024;52.172;5.378;2024-03-23T09:20:41;10.20;99.90
7958;DHT22;4024;52.172;5.378;2024-03-23T09:23:07;10.20;99.90
7958;DHT22;4024;52.172;5.378;2024-03-23T09:25:36;10.20;99.90
7958;DHT22;4024;52.172;5.378;2024-03-23T09:28:02;10.20;99.90
7958;DHT22;4024;52.172;5.378;2024-03-23T09:30:27;10.20;99.90
7958;DHT22;4024;52.172;5.378;2024-03-23T09:32:53;10.20;99.90
7958;DHT22;4024;52.172;5.378;2024-03-23T09:35:18;10.20;99.90
7958;DHT22;4024;52.172;5.378;2024-03-23T09:37:45;10.20;99.90
7958;DHT22;4024;52.172;5.378;2024-03-23T09:40:11;10.20;99.90
7958;DHT22;4024;52.172;5.378;2024-03-23T09:42:37;10.10;99.90
7958;DHT22;4024;52.172;5.378;2024-03-23T09:45:05;10.20;99.90
7958;DHT22;4024;52.172;5.378;2024-03-23T09:47:33;10.20;99.90
7958;DHT22;4024;52.172;5.378;2024-03-23T09:50:00;10.30;99.90
7958;DHT22;4024;52.172;5.378;2024-03-23T09:52:25;10.30;99.90
7958;DHT22;4024;52.172;5.378;2024-03-23T09:54:51;10.30;99.90
7958;DHT22;4024;52.172;5.378;2024-03-23T09:57:17;10.40;99.90
7958;DHT22;4024;52.172;5.378;2024-03-23T09:59:43;10.50;99.90
7958;DHT22;4024;52.172;5.378;2024-03-23T10:02:08;10.60;99.90
7958;DHT22;4024;52.172;5.378;2024-03-23T10:07:15;10.70;99.90
7958;DHT22;4024;52.172;5.378;2024-03-23T10:09:44;10.80;99.90
7958;DHT22;4024;52.172;5.378;2024-03-23T10:12:10;10.90;99.90
7958;DHT22;4024;52.172;5.378;2024-03-23T10:14:37;11.00;99.90
7958;DHT22;4024;52.172;5.378;2024-03-23T10:17:14;11.00;99.90
7958;DHT22;4024;52.172;5.378;2024-03-23T10:19:44;11.00;99.90
7958;DHT22;4024;52.172;5.378;2024-03-23T10:22:13;11.00;99.90
7958;DHT22;4024;52.172;5.378;2024-03-23T10:24:39;11.00;99.90
7958;DHT22;4024;52.172;5.378;2024-03-23T10:27:05;11.00;99.90
7958;DHT22;4024;52.172;5.378;2024-03-23T10:29:30;11.00;99.90
7958;DHT22;4024;52.172;5.378;2024-03-23T10:32:09;11.10;99.90
7958;DHT22;4024;52.172;5.378;2024-03-23T10:34:37;11.10;99.90
7958;DHT22;4024;52.172;5.378;2024-03-23T10:37:03;11.10;99.90
7958;DHT22;4024;52.172;5.378;2024-03-23T10:39:33;11.10;99.90
7958;DHT22;4024;52.172;5.378;2024-03-23T10:42:10;11.20;99.90
7958;DHT22;4024;52.172;5.378;2024-03-23T10:44:37;11.10;99.90
7958;DHT22;4024;52.172;5.378;2024-03-23T10:47:04;11.20;99.90
7958;DHT22;4024;52.172;5.378;2024-03-23T10:49:32;11.20;99.90
7958;DHT22;4024;52.172;5.378;2024-03-23T10:52:04;11.40;99.90
7958;DHT22;4024;52.172;5.378;2024-03-23T10:54:31;11.10;99.90
7958;DHT22;4024;52.172;5.378;2024-03-23T10:57:05;11.10;99.90
7958;DHT22;4024;52.172;5.378;2024-03-23T10:59:31;11.00;99.90
7958;DHT22;4024;52.172;5.378;2024-03-23T11:01:59;11.10;99.90
7958;DHT22;4024;52.172;5.378;2024-03-23T11:04:38;11.10;99.90
7958;DHT22;4024;52.172;5.378;2024-03-23T11:09:50;11.10;99.90
7958;DHT22;4024;52.172;5.378;2024-03-23T11:12:28;11.20;99.90
7958;DHT22;4024;52.172;5.378;2024-03-23T11:15:13;11.30;99.90
7958;DHT22;4024;52.172;5.378;2024-03-23T11:17:38;11.40;99.90
7958;DHT22;4024;52.172;5.378;2024-03-23T11:20:05;11.50;99.90
7958;DHT22;4024;52.172;5.378;2024-03-23T11:25:04;11.50;99.90
7958;DHT22;4024;52.172;5.378;2024-03-23T11:27:37;11.60;99.90
7958;DHT22;4024;52.172;5.378;2024-03-23T11:30:20;11.60;99.90
7958;DHT22;4024;52.172;5.378;2024-03-23T11:32:48;11.60;99.90
7958;DHT22;4024;52.172;5.378;2024-03-23T11:35:31;11.50;99.90
7958;DHT22;4024;52.172;5.378;2024-03-23T11:38:10;11.50;99.90
7958;DHT22;4024;52.172;5.378;2024-03-23T11:40:43;11.50;99.90
7958;DHT22;4024;52.172;5.378;2024-03-23T11:43:14;11.40;99.90
7958;DHT22;4024;52.172;5.378;2024-03-23T11:45:49;11.30;99.90
7958;DHT22;4024;52.172;5.378;2024-03-23T11:48:19;11.20;99.90
7958;DHT22;4024;52.172;5.378;2024-03-23T11:50:56;11.10;99.90
7958;DHT22;4024;52.172;5.378;2024-03-23T11:53:24;11.10;99.90
7958;DHT22;4024;52.172;5.378;2024-03-23T11:55:56;11.10;99.90
7958;DHT22;4024;52.172;5.378;2024-03-23T11:58:24;11.10;99.90
7958;DHT22;4024;52.172;5.378;2024-03-23T12:03:21;11.10;99.90
7958;DHT22;4024;52.172;5.378;2024-03-23T12:05:52;11.10;99.90
7958;DHT22;4024;52.172;5.378;2024-03-23T12:08:29;11.10;99.90
7958;DHT22;4024;52.172;5.378;2024-03-23T12:11:08;11.10;99.90
7958;DHT22;4024;52.172;5.378;2024-03-23T12:13:35;11.10;99.90
7958;DHT22;4024;52.172;5.378;2024-03-23T12:16:14;11.10;99.90
7958;DHT22;4024;52.172;5.378;2024-03-23T12:18:41;11.10;99.90
7958;DHT22;4024;52.172;5.378;2024-03-23T12:21:07;11.10;99.90
7958;DHT22;4024;52.172;5.378;2024-03-23T12:23:33;11.10;99.90
7958;DHT22;4024;52.172;5.378;2024-03-23T12:25:59;11.20;99.90
7958;DHT22;4024;52.172;5.378;2024-03-23T12:28:25;11.20;99.90
7958;DHT22;4024;52.172;5.378;2024-03-23T12:30:54;11.20;99.90
7958;DHT22;4024;52.172;5.378;2024-03-23T12:33:20;11.30;99.90
7958;DHT22;4024;52.172;5.378;2024-03-23T12:35:46;11.30;99.90
7958;DHT22;4024;52.172;5.378;2024-03-23T12:38:12;11.50;99.90
7958;DHT22;4024;52.172;5.378;2024-03-23T12:40:38;11.50;99.90
7958;DHT22;4024;52.172;5.378;2024-03-23T12:43:03;11.50;99.90
7958;DHT22;4024;52.172;5.378;2024-03-23T12:45:29;11.70;99.90
7958;DHT22;4024;52.172;5.378;2024-03-23T12:47:55;11.80;99.90
7958;DHT22;4024;52.172;5.378;2024-03-23T12:50:21;11.90;99.90
7958;DHT22;4024;52.172;5.378;2024-03-23T12:52:47;12.00;99.90
7958;DHT22;4024;52.172;5.378;2024-03-23T12:55:13;12.00;99.90
7958;DHT22;4024;52.172;5.378;2024-03-23T12:57:39;12.10;99.90
7958;DHT22;4024;52.172;5.378;2024-03-23T13:00:06;12.10;99.90
7958;DHT22;4024;52.172;5.378;2024-03-23T13:02:32;12.20;99.90
7958;DHT22;4024;52.172;5.378;2024-03-23T13:05:00;12.20;99.90
7958;DHT22;4024;52.172;5.378;2024-03-23T13:07:25;12.30;99.90
7958;DHT22;4024;52.172;5.378;2024-03-23T13:09:52;12.30;99.90
7958;DHT22;4024;52.172;5.378;2024-03-23T13:12:21;12.40;99.90
7958;DHT22;4024;52.172;5.378;2024-03-23T13:14:46;12.40;99.90
7958;DHT22;4024;52.172;5.378;2024-03-23T13:17:13;12.40;99.90
7958;DHT22;4024;52.172;5.378;2024-03-23T13:19:38;12.50;99.90
7958;DHT22;4024;52.172;5.378;2024-03-23T13:22:04;12.50;99.90
7958;DHT22;4024;52.172;5.378;2024-03-23T13:24:30;12.60;99.90
7958;DHT22;4024;52.172;5.378;2024-03-23T13:26:57;12.60;99.90
7958;DHT22;4024;52.172;5.378;2024-03-23T13:29:23;12.60;99.90
7958;DHT22;4024;52.172;5.378;2024-03-23T13:31:50;12.50;99.90
7958;DHT22;4024;52.172;5.378;2024-03-23T13:34:16;12.50;99.90
7958;DHT22;4024;52.172;5.378;2024-03-23T13:36:43;12.40;99.90
7958;DHT22;4024;52.172;5.378;2024-03-23T13:39:09;12.40;99.90
7958;DHT22;4024;52.172;5.378;2024-03-23T13:41:39;12.30;99.90
7958;DHT22;4024;52.172;5.378;2024-03-23T13:44:06;12.20;99.90
7958;DHT22;4024;52.172;5.378;2024-03-23T13:46:32;12.10;99.90
7958;DHT22;4024;52.172;5.378;2024-03-23T13:48:58;12.00;99.90
7958;DHT22;4024;52.172;5.378;2024-03-23T13:51:24;11.90;99.90
7958;DHT22;4024;52.172;5.378;2024-03-23T13:53:54;11.90;99.90
7958;DHT22;4024;52.172;5.378;2024-03-23T13:56:20;11.80;99.90
7958;DHT22;4024;52.172;5.378;2024-03-23T13:58:46;11.80;99.90
7958;DHT22;4024;52.172;5.378;2024-03-23T14:01:15;11.80;99.90
7958;DHT22;4024;52.172;5.378;2024-03-23T14:03:42;11.70;99.90
7958;DHT22;4024;52.172;5.378;2024-03-23T14:06:08;11.70;99.90
7958;DHT22;4024;52.172;5.378;2024-03-23T14:08:38;11.70;99.90
7958;DHT22;4024;52.172;5.378;2024-03-23T14:11:10;11.60;99.90
7958;DHT22;4024;52.172;5.378;2024-03-23T14:13:36;11.70;99.90
7958;DHT22;4024;52.172;5.378;2024-03-23T14:16:02;11.60;99.90
7958;DHT22;4024;52.172;5.378;2024-03-23T14:18:28;11.70;99.90
7958;DHT22;4024;52.172;5.378;2024-03-23T14:20:58;11.70;99.90
7958;DHT22;4024;52.172;5.378;2024-03-23T14:23:28;11.70;99.90
7958;DHT22;4024;52.172;5.378;2024-03-23T14:26:00;11.70;99.90
7958;DHT22;4024;52.172;5.378;2024-03-23T14:28:25;11.60;99.90
7958;DHT22;4024;52.172;5.378;2024-03-23T14:30:52;11.60;99.90
7958;DHT22;4024;52.172;5.378;2024-03-23T14:33:18;11.60;99.90
7958;DHT22;4024;52.172;5.378;2024-03-23T14:35:52;11.70;99.90
7958;DHT22;4024;52.172;5.378;2024-03-23T14:38:18;11.60;99.90
7958;DHT22;4024;52.172;5.378;2024-03-23T14:40:44;11.70;99.90
7958;DHT22;4024;52.172;5.378;2024-03-23T14:43:10;11.70;99.90
7958;DHT22;4024;52.172;5.378;2024-03-23T14:45:35;11.70;99.90
7958;DHT22;4024;52.172;5.378;2024-03-23T14:48:02;11.80;99.90
7958;DHT22;4024;52.172;5.378;2024-03-23T14:50:27;11.70;99.90
7958;DHT22;4024;52.172;5.378;2024-03-23T14:52:53;11.70;99.90
7958;DHT22;4024;52.172;5.378;2024-03-23T14:55:19;11.80;99.90
7958;DHT22;4024;52.172;5.378;2024-03-23T14:57:44;11.80;99.90
7958;DHT22;4024;52.172;5.378;2024-03-23T15:00:10;11.80;99.90
7958;DHT22;4024;52.172;5.378;2024-03-23T15:02:37;11.80;99.90
7958;DHT22;4024;52.172;5.378;2024-03-23T15:05:04;11.90;99.90
7958;DHT22;4024;52.172;5.378;2024-03-23T15:07:30;11.80;99.90
7958;DHT22;4024;52.172;5.378;2024-03-23T15:09:56;11.70;99.90
7958;DHT22;4024;52.172;5.378;2024-03-23T15:12:21;11.80;99.90
7958;DHT22;4024;52.172;5.378;2024-03-23T15:14:47;11.70;99.90
7958;DHT22;4024;52.172;5.378;2024-03-23T15:17:13;11.70;99.90
7958;DHT22;4024;52.172;5.378;2024-03-23T15:19:39;11.70;99.90
7958;DHT22;4024;52.172;5.378;2024-03-23T15:22:05;11.70;99.90
7958;DHT22;4024;52.172;5.378;2024-03-23T15:24:31;11.70;99.90
7958;DHT22;4024;52.172;5.378;2024-03-23T15:26:57;11.70;99.90
7958;DHT22;4024;52.172;5.378;2024-03-23T15:29:22;11.70;99.90
7958;DHT22;4024;52.172;5.378;2024-03-23T15:31:48;11.70;99.90
7958;DHT22;4024;52.172;5.378;2024-03-23T15:34:18;11.60;99.90
7958;DHT22;4024;52.172;5.378;2024-03-23T15:36:46;11.70;99.90
7958;DHT22;4024;52.172;5.378;2024-03-23T15:39:11;11.70;99.90
7958;DHT22;4024;52.172;5.378;2024-03-23T15:41:39;11.60;99.90
7958;DHT22;4024;52.172;5.378;2024-03-23T15:44:04;11.50;99.90
7958;DHT22;4024;52.172;5.378;2024-03-23T15:46:31;11.60;99.90
7958;DHT22;4024;52.172;5.378;2024-03-23T15:48:56;11.50;99.90
7958;DHT22;4024;52.172;5.378;2024-03-23T15:51:22;11.40;99.90
7958;DHT22;4024;52.172;5.378;2024-03-23T15:53:48;11.40;99.90
7958;DHT22;4024;52.172;5.378;2024-03-23T15:56:13;11.40;99.90
7958;DHT22;4024;52.172;5.378;2024-03-23T15:58:39;11.40;99.90
7958;DHT22;4024;52.172;5.378;2024-03-23T16:01:06;11.30;99.90
7958;DHT22;4024;52.172;5.378;2024-03-23T16:03:34;11.30;99.90
7958;DHT22;4024;52.172;5.378;2024-03-23T16:06:01;11.30;99.90
7958;DHT22;4024;52.172;5.378;2024-03-23T16:08:29;11.30;99.90
7958;DHT22;4024;52.172;5.378;2024-03-23T16:10:59;11.30;99.90
7958;DHT22;4024;52.172;5.378;2024-03-23T16:13:25;11.20;99.90
7958;DHT22;4024;52.172;5.378;2024-03-23T16:15:55;11.30;99.90
7958;DHT22;4024;52.172;5.378;2024-03-23T16:18:21;11.20;99.90
7958;DHT22;4024;52.172;5.378;2024-03-23T16:20:57;11.20;99.90
7958;DHT22;4024;52.172;5.378;2024-03-23T16:23:23;11.20;99.90
7958;DHT22;4024;52.172;5.378;2024-03-23T16:25:50;11.20;99.90
7958;DHT22;4024;52.172;5.378;2024-03-23T16:28:25;11.10;99.90
7958;DHT22;4024;52.172;5.378;2024-03-23T16:33:20;11.10;99.90
7958;DHT22;4024;52.172;5.378;2024-03-23T16:36:04;11.00;99.90
7958;DHT22;4024;52.172;5.378;2024-03-23T16:38:31;10.90;99.90
7958;DHT22;4024;52.172;5.378;2024-03-23T16:41:00;10.90;99.90
7958;DHT22;4024;52.172;5.378;2024-03-23T16:43:27;10.90;99.90
7958;DHT22;4024;52.172;5.378;2024-03-23T16:45:57;10.80;99.90
7958;DHT22;4024;52.172;5.378;2024-03-23T16:48:24;10.70;99.90
7958;DHT22;4024;52.172;5.378;2024-03-23T16:50:51;10.60;99.90
7958;DHT22;4024;52.172;5.378;2024-03-23T16:53:18;10.50;99.90
7958;DHT22;4024;52.172;5.378;2024-03-23T16:55:44;10.40;99.90
7958;DHT22;4024;52.172;5.378;2024-03-23T16:58:09;10.40;99.90
7958;DHT22;4024;52.172;5.378;2024-03-23T17:00:36;10.30;99.90
7958;DHT22;4024;52.172;5.378;2024-03-23T17:03:03;10.30;99.90
7958;DHT22;4024;52.172;5.378;2024-03-23T17:05:29;10.20;99.90
7958;DHT22;4024;52.172;5.378;2024-03-23T17:07:55;10.20;99.90
7958;DHT22;4024;52.172;5.378;2024-03-23T17:10:24;10.20;99.90
7958;DHT22;4024;52.172;5.378;2024-03-23T17:12:50;10.10;99.90